sensor_id;sensor_type;location;lat;lon;timestamp;P1;durP1;ratioP1;P2;durP2;ratioP2
46491;SDS011;32206;51.446;6.792;2023-04-24T00:07:48;2.83;;;1.00;;
46491;SDS011;32206;51.446;6.792;2023-04-24T00:13:36;0.52;;;0.50;;
46491;SDS011;32206;51.446;6.792;2023-04-24T00:16:02;2.08;;;1.17;;
46491;SDS011;32206;51.446;6.792;2023-04-24T00:18:28;1.90;;;0.90;;
46491;SDS011;32206;51.446;6.792;2023-04-24T00:20:54;1.88;;;1.52;;
46491;SDS011;32206;51.446;6.792;2023-04-24T00:23:19;2.65;;;2.13;;
46491;SDS011;32206;51.446;6.792;2023-04-24T00:29:03;2.17;;;1.00;;
46491;SDS011;32206;51.446;6.792;2023-04-24T00:38:10;2.55;;;1.65;;
46491;SDS011;32206;51.446;6.792;2023-04-24T00:43:58;2.08;;;1.15;;
46491;SDS011;32206;51.446;6.792;2023-04-24T00:46:23;2.80;;;1.17;;
46491;SDS011;32206;51.446;6.792;2023-04-24T00:48:49;2.05;;;1.73;;
46491;SDS011;32206;51.446;6.792;2023-04-24T00:51:15;3.10;;;2.17;;
46491;SDS011;32206;51.446;6.792;2023-04-24T00:53:41;2.75;;;1.88;;
46491;SDS011;32206;51.446;6.792;2023-04-24T00:56:07;2.78;;;2.05;;
46491;SDS011;32206;51.446;6.792;2023-04-24T00:58:32;1.45;;;1.35;;
46491;SDS011;32206;51.446;6.792;2023-04-24T01:00:58;1.98;;;1.80;;
46491;SDS011;32206;51.446;6.792;2023-04-24T01:03:26;2.58;;;1.77;;
46491;SDS011;32206;51.446;6.792;2023-04-24T01:05:56;2.88;;;2.20;;
46491;SDS011;32206;51.446;6.792;2023-04-24T01:08:23;2.90;;;2.08;;
46491;SDS011;32206;51.446;6.792;2023-04-24T01:14:12;2.22;;;1.95;;
46491;SDS011;32206;51.446;6.792;2023-04-24T01:20:00;4.20;;;2.65;;
46491;SDS011;32206;51.446;6.792;2023-04-24T01:25:52;3.25;;;2.58;;
46491;SDS011;32206;51.446;6.792;2023-04-24T01:28:18;4.32;;;2.97;;
46491;SDS011;32206;51.446;6.792;2023-04-24T01:30:43;5.22;;;3.30;;
46491;SDS011;32206;51.446;6.792;2023-04-24T01:36:31;8.55;;;3.30;;
46491;SDS011;32206;51.446;6.792;2023-04-24T01:39:00;4.43;;;3.70;;
46491;SDS011;32206;51.446;6.792;2023-04-24T01:41:25;3.67;;;2.88;;
46491;SDS011;32206;51.446;6.792;2023-04-24T01:43:51;3.53;;;3.22;;
46491;SDS011;32206;51.446;6.792;2023-04-24T01:46:17;6.13;;;3.95;;
46491;SDS011;32206;51.446;6.792;2023-04-24T01:48:44;6.25;;;4.90;;
46491;SDS011;32206;51.446;6.792;2023-04-24T01:51:10;7.75;;;4.00;;
46491;SDS011;32206;51.446;6.792;2023-04-24T01:53:36;4.68;;;3.70;;
46491;SDS011;32206;51.446;6.792;2023-04-24T01:56:01;3.83;;;3.35;;
46491;SDS011;32206;51.446;6.792;2023-04-24T01:58:28;7.10;;;4.10;;
46491;SDS011;32206;51.446;6.792;2023-04-24T02:00:55;6.07;;;4.47;;
46491;SDS011;32206;51.446;6.792;2023-04-24T02:03:22;5.30;;;4.00;;
46491;SDS011;32206;51.446;6.792;2023-04-24T02:05:48;9.38;;;4.82;;
46491;SDS011;32206;51.446;6.792;2023-04-24T02:08:13;5.90;;;5.30;;
46491;SDS011;32206;51.446;6.792;2023-04-24T02:10:39;7.18;;;4.32;;
46491;SDS011;32206;51.446;6.792;2023-04-24T02:13:05;6.05;;;5.18;;
46491;SDS011;32206;51.446;6.792;2023-04-24T02:15:30;5.50;;;4.32;;
46491;SDS011;32206;51.446;6.792;2023-04-24T02:17:56;8.90;;;4.03;;
46491;SDS011;32206;51.446;6.792;2023-04-24T02:20:21;7.65;;;5.60;;
46491;SDS011;32206;51.446;6.792;2023-04-24T02:22:47;9.35;;;5.95;;
46491;SDS011;32206;51.446;6.792;2023-04-24T02:28:35;8.55;;;6.03;;
46491;SDS011;32206;51.446;6.792;2023-04-24T02:31:00;6.30;;;5.80;;
46491;SDS011;32206;51.446;6.792;2023-04-24T02:37:06;8.27;;;6.65;;
46491;SDS011;32206;51.446;6.792;2023-04-24T02:39:32;9.88;;;6.70;;
46491;SDS011;32206;51.446;6.792;2023-04-24T02:45:20;8.65;;;6.43;;
46491;SDS011;32206;51.446;6.792;2023-04-24T02:47:46;8.00;;;7.07;;
46491;SDS011;32206;51.446;6.792;2023-04-24T02:50:11;12.50;;;6.95;;
46491;SDS011;32206;51.446;6.792;2023-04-24T02:52:37;7.72;;;6.40;;
46491;SDS011;32206;51.446;6.792;2023-04-24T02:55:03;10.50;;;6.68;;
46491;SDS011;32206;51.446;6.792;2023-04-24T03:00:54;10.95;;;7.60;;
46491;SDS011;32206;51.446;6.792;2023-04-24T03:03:22;14.40;;;8.38;;
46491;SDS011;32206;51.446;6.792;2023-04-24T03:05:48;15.73;;;8.07;;
46491;SDS011;32206;51.446;6.792;2023-04-24T03:08:14;18.75;;;8.40;;
46491;SDS011;32206;51.446;6.792;2023-04-24T03:17:24;11.73;;;8.25;;
46491;SDS011;32206;51.446;6.792;2023-04-24T03:19:50;16.27;;;10.05;;
46491;SDS011;32206;51.446;6.792;2023-04-24T03:22:16;12.73;;;8.98;;
46491;SDS011;32206;51.446;6.792;2023-04-24T03:24:41;14.45;;;9.85;;
46491;SDS011;32206;51.446;6.792;2023-04-24T03:27:07;15.40;;;9.75;;
46491;SDS011;32206;51.446;6.792;2023-04-24T03:29:33;15.48;;;9.80;;
46491;SDS011;32206;51.446;6.792;2023-04-24T03:31:58;11.13;;;8.25;;
46491;SDS011;32206;51.446;6.792;2023-04-24T03:34:24;12.95;;;8.68;;
46491;SDS011;32206;51.446;6.792;2023-04-24T03:36:49;16.58;;;10.00;;
46491;SDS011;32206;51.446;6.792;2023-04-24T03:39:15;18.55;;;11.18;;
46491;SDS011;32206;51.446;6.792;2023-04-24T03:48:25;15.95;;;9.13;;
46491;SDS011;32206;51.446;6.792;2023-04-24T03:50:51;15.50;;;8.90;;
46491;SDS011;32206;51.446;6.792;2023-04-24T03:53:16;12.55;;;8.43;;
46491;SDS011;32206;51.446;6.792;2023-04-24T03:55:42;16.13;;;8.70;;
46491;SDS011;32206;51.446;6.792;2023-04-24T04:01:30;17.27;;;8.60;;
46491;SDS011;32206;51.446;6.792;2023-04-24T04:07:17;16.05;;;9.02;;
46491;SDS011;32206;51.446;6.792;2023-04-24T04:09:43;10.48;;;8.60;;
46491;SDS011;32206;51.446;6.792;2023-04-24T04:18:56;18.52;;;10.95;;
46491;SDS011;32206;51.446;6.792;2023-04-24T04:21:21;14.63;;;10.75;;
46491;SDS011;32206;51.446;6.792;2023-04-24T04:23:47;22.45;;;11.13;;
46491;SDS011;32206;51.446;6.792;2023-04-24T04:29:35;14.80;;;9.07;;
46491;SDS011;32206;51.446;6.792;2023-04-24T04:32:01;15.65;;;8.75;;
46491;SDS011;32206;51.446;6.792;2023-04-24T04:41:12;12.13;;;8.27;;
46491;SDS011;32206;51.446;6.792;2023-04-24T04:43:37;13.25;;;8.27;;
46491;SDS011;32206;51.446;6.792;2023-04-24T04:46:04;15.02;;;8.57;;
46491;SDS011;32206;51.446;6.792;2023-04-24T04:48:30;17.48;;;8.57;;
46491;SDS011;32206;51.446;6.792;2023-04-24T04:50:56;15.55;;;8.45;;
46491;SDS011;32206;51.446;6.792;2023-04-24T04:53:22;12.45;;;8.05;;
46491;SDS011;32206;51.446;6.792;2023-04-24T04:55:48;16.58;;;8.20;;
46491;SDS011;32206;51.446;6.792;2023-04-24T04:58:14;11.20;;;7.88;;
46491;SDS011;32206;51.446;6.792;2023-04-24T05:00:39;11.68;;;7.20;;
46491;SDS011;32206;51.446;6.792;2023-04-24T05:03:06;13.77;;;8.13;;
46491;SDS011;32206;51.446;6.792;2023-04-24T05:08:54;10.45;;;6.78;;
46491;SDS011;32206;51.446;6.792;2023-04-24T05:11:22;9.88;;;7.68;;
46491;SDS011;32206;51.446;6.792;2023-04-24T05:20:29;9.27;;;6.03;;
46491;SDS011;32206;51.446;6.792;2023-04-24T05:22:55;7.53;;;6.68;;
46491;SDS011;32206;51.446;6.792;2023-04-24T05:25:21;13.90;;;8.23;;
46491;SDS011;32206;51.446;6.792;2023-04-24T05:27:46;10.32;;;7.60;;
46491;SDS011;32206;51.446;6.792;2023-04-24T05:30:12;11.63;;;7.55;;
46491;SDS011;32206;51.446;6.792;2023-04-24T05:32:38;10.18;;;8.48;;
46491;SDS011;32206;51.446;6.792;2023-04-24T05:35:03;11.50;;;8.10;;
46491;SDS011;32206;51.446;6.792;2023-04-24T05:37:29;11.85;;;9.00;;
46491;SDS011;32206;51.446;6.792;2023-04-24T05:39:55;19.58;;;10.27;;
46491;SDS011;32206;51.446;6.792;2023-04-24T05:49:05;16.40;;;9.20;;
46491;SDS011;32206;51.446;6.792;2023-04-24T05:51:31;12.73;;;8.95;;
46491;SDS011;32206;51.446;6.792;2023-04-24T05:53:56;12.32;;;8.90;;
46491;SDS011;32206;51.446;6.792;2023-04-24T05:56:22;17.20;;;9.05;;
46491;SDS011;32206;51.446;6.792;2023-04-24T06:02:13;16.23;;;8.93;;
46491;SDS011;32206;51.446;6.792;2023-04-24T06:07:55;12.90;;;7.95;;
46491;SDS011;32206;51.446;6.792;2023-04-24T06:10:21;10.25;;;7.22;;
46491;SDS011;32206;51.446;6.792;2023-04-24T06:12:48;15.05;;;8.60;;
46491;SDS011;32206;51.446;6.792;2023-04-24T06:15:14;11.32;;;8.18;;
46491;SDS011;32206;51.446;6.792;2023-04-24T06:17:40;12.90;;;7.90;;
46491;SDS011;32206;51.446;6.792;2023-04-24T06:23:27;9.35;;;8.02;;
46491;SDS011;32206;51.446;6.792;2023-04-24T06:25:54;11.80;;;7.78;;
46491;SDS011;32206;51.446;6.792;2023-04-24T06:28:19;12.18;;;8.02;;
46491;SDS011;32206;51.446;6.792;2023-04-24T06:30:45;15.88;;;8.20;;
46491;SDS011;32206;51.446;6.792;2023-04-24T06:33:11;10.50;;;6.65;;
46491;SDS011;32206;51.446;6.792;2023-04-24T06:35:36;10.43;;;7.20;;
46491;SDS011;32206;51.446;6.792;2023-04-24T06:38:03;11.15;;;7.97;;
46491;SDS011;32206;51.446;6.792;2023-04-24T06:40:29;14.68;;;6.90;;
46491;SDS011;32206;51.446;6.792;2023-04-24T06:42:55;10.63;;;7.35;;
46491;SDS011;32206;51.446;6.792;2023-04-24T06:48:43;10.63;;;7.40;;
46491;SDS011;32206;51.446;6.792;2023-04-24T06:54:46;10.13;;;7.20;;
46491;SDS011;32206;51.446;6.792;2023-04-24T06:57:12;7.72;;;5.85;;
46491;SDS011;32206;51.446;6.792;2023-04-24T07:03:00;4.93;;;4.53;;
46491;SDS011;32206;51.446;6.792;2023-04-24T07:08:49;3.95;;;3.65;;
46491;SDS011;32206;51.446;6.792;2023-04-24T07:11:15;3.85;;;3.50;;
46491;SDS011;32206;51.446;6.792;2023-04-24T07:20:15;4.90;;;2.72;;
46491;SDS011;32206;51.446;6.792;2023-04-24T07:26:03;5.95;;;2.60;;
46491;SDS011;32206;51.446;6.792;2023-04-24T07:28:29;8.02;;;2.05;;
46491;SDS011;32206;51.446;6.792;2023-04-24T07:30:57;3.63;;;2.55;;
46491;SDS011;32206;51.446;6.792;2023-04-24T07:33:24;3.67;;;2.40;;
46491;SDS011;32206;51.446;6.792;2023-04-24T07:42:37;3.13;;;2.00;;
46491;SDS011;32206;51.446;6.792;2023-04-24T07:45:03;3.60;;;2.20;;
46491;SDS011;32206;51.446;6.792;2023-04-24T07:47:30;1.40;;;1.30;;
46491;SDS011;32206;51.446;6.792;2023-04-24T07:49:56;1.27;;;1.08;;
46491;SDS011;32206;51.446;6.792;2023-04-24T07:52:21;1.63;;;1.52;;
46491;SDS011;32206;51.446;6.792;2023-04-24T07:54:48;2.63;;;0.75;;
46491;SDS011;32206;51.446;6.792;2023-04-24T07:57:14;1.45;;;1.10;;
46491;SDS011;32206;51.446;6.792;2023-04-24T07:59:40;1.92;;;1.33;;
46491;SDS011;32206;51.446;6.792;2023-04-24T08:02:06;2.13;;;1.20;;
46491;SDS011;32206;51.446;6.792;2023-04-24T08:04:32;4.97;;;1.70;;
46491;SDS011;32206;51.446;6.792;2023-04-24T08:06:58;1.98;;;1.60;;
46491;SDS011;32206;51.446;6.792;2023-04-24T08:09:24;3.13;;;1.50;;
46491;SDS011;32206;51.446;6.792;2023-04-24T08:11:50;2.40;;;1.90;;
46491;SDS011;32206;51.446;6.792;2023-04-24T08:21:00;4.75;;;2.80;;
46491;SDS011;32206;51.446;6.792;2023-04-24T08:23:26;4.53;;;2.45;;
46491;SDS011;32206;51.446;6.792;2023-04-24T08:25:52;2.10;;;1.40;;
46491;SDS011;32206;51.446;6.792;2023-04-24T08:28:18;3.35;;;1.50;;
46491;SDS011;32206;51.446;6.792;2023-04-24T08:34:07;1.38;;;0.82;;
46491;SDS011;32206;51.446;6.792;2023-04-24T08:36:34;0.80;;;0.80;;
46491;SDS011;32206;51.446;6.792;2023-04-24T08:52:29;2.58;;;1.13;;
46491;SDS011;32206;51.446;6.792;2023-04-24T08:54:54;1.75;;;0.70;;
46491;SDS011;32206;51.446;6.792;2023-04-24T08:57:21;0.70;;;0.70;;
46491;SDS011;32206;51.446;6.792;2023-04-24T09:03:10;2.13;;;0.75;;
46491;SDS011;32206;51.446;6.792;2023-04-24T09:05:35;1.10;;;1.00;;
46491;SDS011;32206;51.446;6.792;2023-04-24T09:10:50;3.17;;;2.35;;
46491;SDS011;32206;51.446;6.792;2023-04-24T09:13:15;5.43;;;4.43;;
46491;SDS011;32206;51.446;6.792;2023-04-24T09:15:43;6.03;;;4.47;;
46491;SDS011;32206;51.446;6.792;2023-04-24T09:18:09;7.43;;;5.15;;
46491;SDS011;32206;51.446;6.792;2023-04-24T09:20:34;6.72;;;5.03;;
46491;SDS011;32206;51.446;6.792;2023-04-24T09:26:42;8.40;;;4.78;;
46491;SDS011;32206;51.446;6.792;2023-04-24T09:29:13;7.50;;;5.05;;
46491;SDS011;32206;51.446;6.792;2023-04-24T09:31:43;7.20;;;4.47;;
46491;SDS011;32206;51.446;6.792;2023-04-24T09:34:10;6.30;;;3.90;;
46491;SDS011;32206;51.446;6.792;2023-04-24T09:36:42;5.85;;;4.07;;
46491;SDS011;32206;51.446;6.792;2023-04-24T09:42:30;8.68;;;3.85;;
46491;SDS011;32206;51.446;6.792;2023-04-24T09:48:19;7.28;;;5.22;;
46491;SDS011;32206;51.446;6.792;2023-04-24T09:50:54;6.35;;;5.50;;
46491;SDS011;32206;51.446;6.792;2023-04-24T09:53:23;5.90;;;4.78;;
46491;SDS011;32206;51.446;6.792;2023-04-24T09:55:49;7.50;;;4.88;;
46491;SDS011;32206;51.446;6.792;2023-04-24T09:58:15;6.18;;;5.18;;
46491;SDS011;32206;51.446;6.792;2023-04-24T10:00:41;9.40;;;6.43;;
46491;SDS011;32206;51.446;6.792;2023-04-24T10:03:06;8.18;;;5.68;;
46491;SDS011;32206;51.446;6.792;2023-04-24T10:05:36;8.75;;;5.90;;
46491;SDS011;32206;51.446;6.792;2023-04-24T10:08:13;10.52;;;5.20;;
46491;SDS011;32206;51.446;6.792;2023-04-24T10:10:40;5.90;;;4.30;;
46491;SDS011;32206;51.446;6.792;2023-04-24T10:13:06;7.65;;;4.60;;
46491;SDS011;32206;51.446;6.792;2023-04-24T10:18:55;8.45;;;4.65;;
46491;SDS011;32206;51.446;6.792;2023-04-24T10:21:23;6.95;;;4.13;;
46491;SDS011;32206;51.446;6.792;2023-04-24T10:27:21;12.18;;;5.00;;
46491;SDS011;32206;51.446;6.792;2023-04-24T10:29:47;10.80;;;3.60;;
46491;SDS011;32206;51.446;6.792;2023-04-24T10:32:15;19.98;;;8.80;;
46491;SDS011;32206;51.446;6.792;2023-04-24T10:34:41;11.13;;;6.93;;
46491;SDS011;32206;51.446;6.792;2023-04-24T10:37:07;11.93;;;5.53;;
46491;SDS011;32206;51.446;6.792;2023-04-24T10:42:54;7.50;;;4.40;;
46491;SDS011;32206;51.446;6.792;2023-04-24T10:45:21;14.15;;;4.88;;
46491;SDS011;32206;51.446;6.792;2023-04-24T10:47:58;13.15;;;5.03;;
46491;SDS011;32206;51.446;6.792;2023-04-24T10:50:41;7.18;;;4.05;;
46491;SDS011;32206;51.446;6.792;2023-04-24T10:53:27;10.07;;;4.25;;
46491;SDS011;32206;51.446;6.792;2023-04-24T10:55:58;13.65;;;4.95;;
46491;SDS011;32206;51.446;6.792;2023-04-24T11:30:48;9.50;;;2.90;;
46491;SDS011;32206;51.446;6.792;2023-04-24T11:36:46;12.05;;;2.80;;
46491;SDS011;32206;51.446;6.792;2023-04-24T11:39:13;9.10;;;2.33;;
46491;SDS011;32206;51.446;6.792;2023-04-24T11:41:39;18.20;;;8.57;;
46491;SDS011;32206;51.446;6.792;2023-04-24T11:44:06;13.73;;;5.65;;
46491;SDS011;32206;51.446;6.792;2023-04-24T11:46:33;40.63;;;20.83;;
46491;SDS011;32206;51.446;6.792;2023-04-24T11:48:59;10.68;;;5.00;;
46491;SDS011;32206;51.446;6.792;2023-04-24T11:54:47;12.13;;;4.78;;
46491;SDS011;32206;51.446;6.792;2023-04-24T11:57:14;4.50;;;2.67;;
46491;SDS011;32206;51.446;6.792;2023-04-24T11:59:40;7.15;;;2.60;;
46491;SDS011;32206;51.446;6.792;2023-04-24T12:02:06;5.13;;;2.30;;
46491;SDS011;32206;51.446;6.792;2023-04-24T12:04:41;10.60;;;2.83;;
46491;SDS011;32206;51.446;6.792;2023-04-24T12:07:06;14.00;;;3.88;;
46491;SDS011;32206;51.446;6.792;2023-04-24T12:09:45;7.90;;;3.13;;
46491;SDS011;32206;51.446;6.792;2023-04-24T12:12:25;7.57;;;3.30;;
46491;SDS011;32206;51.446;6.792;2023-04-24T12:14:53;6.00;;;2.75;;
46491;SDS011;32206;51.446;6.792;2023-04-24T12:17:27;5.50;;;3.13;;
46491;SDS011;32206;51.446;6.792;2023-04-24T12:19:57;5.03;;;2.38;;
46491;SDS011;32206;51.446;6.792;2023-04-24T12:22:28;6.45;;;2.28;;
46491;SDS011;32206;51.446;6.792;2023-04-24T12:25:09;3.80;;;2.72;;
46491;SDS011;32206;51.446;6.792;2023-04-24T12:27:35;2.20;;;1.58;;
46491;SDS011;32206;51.446;6.792;2023-04-24T12:30:03;3.28;;;1.58;;
46491;SDS011;32206;51.446;6.792;2023-04-24T12:32:30;6.22;;;2.42;;
46491;SDS011;32206;51.446;6.792;2023-04-24T12:34:56;8.48;;;4.28;;
46491;SDS011;32206;51.446;6.792;2023-04-24T12:37:24;2.95;;;1.30;;
46491;SDS011;32206;51.446;6.792;2023-04-24T12:42:41;9.90;;;1.95;;
46491;SDS011;32206;51.446;6.792;2023-04-24T12:45:14;2.42;;;1.75;;
46491;SDS011;32206;51.446;6.792;2023-04-24T12:47:42;2.50;;;1.38;;
46491;SDS011;32206;51.446;6.792;2023-04-24T12:53:30;3.80;;;2.67;;
46491;SDS011;32206;51.446;6.792;2023-04-24T13:02:40;2.60;;;1.17;;
46491;SDS011;32206;51.446;6.792;2023-04-24T13:05:06;2.55;;;1.38;;
46491;SDS011;32206;51.446;6.792;2023-04-24T13:07:32;4.55;;;1.25;;
46491;SDS011;32206;51.446;6.792;2023-04-24T13:09:58;4.15;;;1.25;;
46491;SDS011;32206;51.446;6.792;2023-04-24T13:15:49;5.32;;;1.60;;
46491;SDS011;32206;51.446;6.792;2023-04-24T13:18:14;2.30;;;1.45;;
46491;SDS011;32206;51.446;6.792;2023-04-24T13:20:40;1.55;;;0.60;;
46491;SDS011;32206;51.446;6.792;2023-04-24T13:23:06;2.53;;;0.80;;
46491;SDS011;32206;51.446;6.792;2023-04-24T13:25:34;3.22;;;1.38;;
46491;SDS011;32206;51.446;6.792;2023-04-24T13:31:23;2.95;;;0.70;;
46491;SDS011;32206;51.446;6.792;2023-04-24T13:33:49;4.35;;;0.70;;
46491;SDS011;32206;51.446;6.792;2023-04-24T13:36:14;7.90;;;0.90;;
46491;SDS011;32206;51.446;6.792;2023-04-24T13:38:41;4.25;;;1.08;;
46491;SDS011;32206;51.446;6.792;2023-04-24T13:41:07;4.80;;;0.98;;
46491;SDS011;32206;51.446;6.792;2023-04-24T13:43:33;2.92;;;0.50;;
46491;SDS011;32206;51.446;6.792;2023-04-24T13:45:59;5.38;;;0.73;;
46491;SDS011;32206;51.446;6.792;2023-04-24T13:48:26;1.67;;;0.80;;
46491;SDS011;32206;51.446;6.792;2023-04-24T13:50:52;3.45;;;1.25;;
46491;SDS011;32206;51.446;6.792;2023-04-24T13:53:18;4.88;;;1.15;;
46491;SDS011;32206;51.446;6.792;2023-04-24T13:55:43;3.30;;;0.60;;
46491;SDS011;32206;51.446;6.792;2023-04-24T14:01:31;5.78;;;1.00;;
46491;SDS011;32206;51.446;6.792;2023-04-24T14:03:57;2.95;;;0.80;;
46491;SDS011;32206;51.446;6.792;2023-04-24T14:06:22;3.38;;;1.17;;
46491;SDS011;32206;51.446;6.792;2023-04-24T14:08:48;1.85;;;0.70;;
46491;SDS011;32206;51.446;6.792;2023-04-24T14:11:15;2.67;;;0.80;;
46491;SDS011;32206;51.446;6.792;2023-04-24T14:17:03;1.35;;;0.70;;
46491;SDS011;32206;51.446;6.792;2023-04-24T14:19:29;3.25;;;0.55;;
46491;SDS011;32206;51.446;6.792;2023-04-24T14:21:55;17.48;;;10.05;;
46491;SDS011;32206;51.446;6.792;2023-04-24T14:24:23;12.07;;;6.22;;
46491;SDS011;32206;51.446;6.792;2023-04-24T14:33:33;2.30;;;0.93;;
46491;SDS011;32206;51.446;6.792;2023-04-24T14:35:59;4.30;;;1.27;;
46491;SDS011;32206;51.446;6.792;2023-04-24T14:38:25;3.50;;;1.17;;
46491;SDS011;32206;51.446;6.792;2023-04-24T14:40:50;3.45;;;0.98;;
46491;SDS011;32206;51.446;6.792;2023-04-24T14:43:16;1.98;;;1.05;;
46491;SDS011;32206;51.446;6.792;2023-04-24T14:45:42;3.88;;;2.67;;
46491;SDS011;32206;51.446;6.792;2023-04-24T14:48:07;4.43;;;2.20;;
46491;SDS011;32206;51.446;6.792;2023-04-24T14:50:33;3.53;;;3.22;;
46491;SDS011;32206;51.446;6.792;2023-04-24T14:52:59;1.98;;;1.77;;
46491;SDS011;32206;51.446;6.792;2023-04-24T14:55:26;5.78;;;1.60;;
46491;SDS011;32206;51.446;6.792;2023-04-24T14:57:52;3.72;;;1.02;;
46491;SDS011;32206;51.446;6.792;2023-04-24T15:00:18;9.43;;;1.77;;
46491;SDS011;32206;51.446;6.792;2023-04-24T15:02:45;4.30;;;1.17;;
46491;SDS011;32206;51.446;6.792;2023-04-24T15:05:10;1.10;;;1.00;;
46491;SDS011;32206;51.446;6.792;2023-04-24T15:07:37;2.72;;;1.30;;
46491;SDS011;32206;51.446;6.792;2023-04-24T15:10:03;5.25;;;1.05;;
46491;SDS011;32206;51.446;6.792;2023-04-24T15:12:29;2.25;;;0.90;;
46491;SDS011;32206;51.446;6.792;2023-04-24T15:14:55;3.83;;;1.10;;
46491;SDS011;32206;51.446;6.792;2023-04-24T15:17:23;3.50;;;1.08;;
46491;SDS011;32206;51.446;6.792;2023-04-24T15:19:48;4.25;;;1.02;;
46491;SDS011;32206;51.446;6.792;2023-04-24T15:22:14;1.38;;;0.80;;
46491;SDS011;32206;51.446;6.792;2023-04-24T15:24:40;3.03;;;1.00;;
46491;SDS011;32206;51.446;6.792;2023-04-24T15:27:08;2.92;;;1.05;;
46491;SDS011;32206;51.446;6.792;2023-04-24T15:29:35;2.10;;;1.15;;
46491;SDS011;32206;51.446;6.792;2023-04-24T15:32:00;1.30;;;0.63;;
46491;SDS011;32206;51.446;6.792;2023-04-24T15:34:26;7.97;;;1.30;;
46491;SDS011;32206;51.446;6.792;2023-04-24T15:36:52;1.98;;;0.57;;
46491;SDS011;32206;51.446;6.792;2023-04-24T15:39:19;3.97;;;0.90;;
46491;SDS011;32206;51.446;6.792;2023-04-24T15:41:48;2.30;;;1.00;;
46491;SDS011;32206;51.446;6.792;2023-04-24T15:44:15;2.05;;;0.63;;
46491;SDS011;32206;51.446;6.792;2023-04-24T15:46:40;2.28;;;0.90;;
46491;SDS011;32206;51.446;6.792;2023-04-24T15:49:06;1.77;;;0.80;;
46491;SDS011;32206;51.446;6.792;2023-04-24T15:51:32;1.02;;;0.68;;
46491;SDS011;32206;51.446;6.792;2023-04-24T15:53:57;1.15;;;0.88;;
46491;SDS011;32206;51.446;6.792;2023-04-24T15:56:23;3.22;;;1.08;;
46491;SDS011;32206;51.446;6.792;2023-04-24T15:58:49;2.53;;;1.00;;
46491;SDS011;32206;51.446;6.792;2023-04-24T16:01:14;2.70;;;0.80;;
46491;SDS011;32206;51.446;6.792;2023-04-24T16:03:40;2.28;;;0.85;;
46491;SDS011;32206;51.446;6.792;2023-04-24T16:06:06;5.18;;;1.42;;
46491;SDS011;32206;51.446;6.792;2023-04-24T16:08:31;1.33;;;0.70;;
46491;SDS011;32206;51.446;6.792;2023-04-24T16:10:57;4.75;;;1.15;;
46491;SDS011;32206;51.446;6.792;2023-04-24T16:16:48;3.83;;;0.52;;
46491;SDS011;32206;51.446;6.792;2023-04-24T16:19:14;0.90;;;0.50;;
46491;SDS011;32206;51.446;6.792;2023-04-24T16:25:02;1.48;;;0.60;;
46491;SDS011;32206;51.446;6.792;2023-04-24T16:27:29;4.55;;;2.72;;
46491;SDS011;32206;51.446;6.792;2023-04-24T16:33:17;0.90;;;0.60;;
46491;SDS011;32206;51.446;6.792;2023-04-24T16:45:30;34.17;;;18.42;;
46491;SDS011;32206;51.446;6.792;2023-04-24T16:47:56;11.70;;;5.63;;
46491;SDS011;32206;51.446;6.792;2023-04-24T16:50:21;2.28;;;1.13;;
46491;SDS011;32206;51.446;6.792;2023-04-24T16:52:47;4.13;;;1.05;;
46491;SDS011;32206;51.446;6.792;2023-04-24T16:55:13;2.30;;;0.98;;
46491;SDS011;32206;51.446;6.792;2023-04-24T16:57:39;2.05;;;0.85;;
46491;SDS011;32206;51.446;6.792;2023-04-24T17:03:27;5.70;;;1.02;;
46491;SDS011;32206;51.446;6.792;2023-04-24T17:05:52;2.95;;;1.40;;
46491;SDS011;32206;51.446;6.792;2023-04-24T17:08:18;2.15;;;0.80;;
46491;SDS011;32206;51.446;6.792;2023-04-24T17:10:44;2.03;;;1.30;;
46491;SDS011;32206;51.446;6.792;2023-04-24T17:13:09;2.10;;;1.27;;
46491;SDS011;32206;51.446;6.792;2023-04-24T17:18:57;1.60;;;0.98;;
46491;SDS011;32206;51.446;6.792;2023-04-24T17:21:22;5.90;;;1.90;;
46491;SDS011;32206;51.446;6.792;2023-04-24T17:23:48;2.63;;;1.08;;
46491;SDS011;32206;51.446;6.792;2023-04-24T17:26:14;4.47;;;1.30;;
46491;SDS011;32206;51.446;6.792;2023-04-24T17:35:24;6.70;;;2.85;;
46491;SDS011;32206;51.446;6.792;2023-04-24T17:37:50;3.03;;;1.55;;
46491;SDS011;32206;51.446;6.792;2023-04-24T17:40:16;8.25;;;3.20;;
46491;SDS011;32206;51.446;6.792;2023-04-24T17:42:41;3.28;;;1.58;;
46491;SDS011;32206;51.446;6.792;2023-04-24T17:48:35;5.05;;;1.52;;
46491;SDS011;32206;51.446;6.792;2023-04-24T17:51:01;3.78;;;1.75;;
46491;SDS011;32206;51.446;6.792;2023-04-24T17:53:27;4.28;;;1.40;;
46491;SDS011;32206;51.446;6.792;2023-04-24T17:55:52;4.57;;;1.50;;
46491;SDS011;32206;51.446;6.792;2023-04-24T17:58:21;5.15;;;1.77;;
46491;SDS011;32206;51.446;6.792;2023-04-24T18:04:09;4.22;;;1.08;;
46491;SDS011;32206;51.446;6.792;2023-04-24T18:06:35;6.53;;;1.83;;
46491;SDS011;32206;51.446;6.792;2023-04-24T18:09:01;4.45;;;1.40;;
46491;SDS011;32206;51.446;6.792;2023-04-24T18:11:27;4.57;;;1.52;;
46491;SDS011;32206;51.446;6.792;2023-04-24T18:13:53;5.55;;;1.85;;
46491;SDS011;32206;51.446;6.792;2023-04-24T18:19:41;3.78;;;1.92;;
46491;SDS011;32206;51.446;6.792;2023-04-24T18:22:06;6.60;;;2.15;;
46491;SDS011;32206;51.446;6.792;2023-04-24T18:24:32;4.78;;;2.53;;
46491;SDS011;32206;51.446;6.792;2023-04-24T18:26:58;9.75;;;2.50;;
46491;SDS011;32206;51.446;6.792;2023-04-24T18:36:08;3.78;;;1.65;;
46491;SDS011;32206;51.446;6.792;2023-04-24T18:38:33;4.97;;;1.88;;
46491;SDS011;32206;51.446;6.792;2023-04-24T18:44:22;5.53;;;2.58;;
46491;SDS011;32206;51.446;6.792;2023-04-24T18:46:49;7.65;;;3.15;;
46491;SDS011;32206;51.446;6.792;2023-04-24T18:49:15;6.53;;;2.55;;
46491;SDS011;32206;51.446;6.792;2023-04-24T18:51:41;5.45;;;2.00;;
46491;SDS011;32206;51.446;6.792;2023-04-24T18:54:07;3.88;;;1.73;;
46491;SDS011;32206;51.446;6.792;2023-04-24T18:56:32;6.97;;;2.40;;
46491;SDS011;32206;51.446;6.792;2023-04-24T18:58:58;8.50;;;2.05;;
46491;SDS011;32206;51.446;6.792;2023-04-24T19:01:33;3.10;;;2.35;;
46491;SDS011;32206;51.446;6.792;2023-04-24T19:03:59;4.22;;;1.90;;
46491;SDS011;32206;51.446;6.792;2023-04-24T19:06:25;6.03;;;1.67;;
46491;SDS011;32206;51.446;6.792;2023-04-24T19:08:51;9.73;;;2.13;;
46491;SDS011;32206;51.446;6.792;2023-04-24T19:11:16;7.22;;;2.22;;
46491;SDS011;32206;51.446;6.792;2023-04-24T19:13:42;10.23;;;2.40;;
46491;SDS011;32206;51.446;6.792;2023-04-24T19:19:30;6.00;;;2.30;;
46491;SDS011;32206;51.446;6.792;2023-04-24T19:21:56;7.60;;;2.53;;
46491;SDS011;32206;51.446;6.792;2023-04-24T19:24:23;9.60;;;2.72;;
46491;SDS011;32206;51.446;6.792;2023-04-24T19:26:49;6.32;;;2.25;;
46491;SDS011;32206;51.446;6.792;2023-04-24T19:29:15;7.13;;;2.28;;
46491;SDS011;32206;51.446;6.792;2023-04-24T19:35:03;5.85;;;2.10;;
46491;SDS011;32206;51.446;6.792;2023-04-24T19:37:28;4.93;;;2.22;;
46491;SDS011;32206;51.446;6.792;2023-04-24T19:39:56;7.13;;;2.28;;
46491;SDS011;32206;51.446;6.792;2023-04-24T19:42:22;4.93;;;1.90;;
46491;SDS011;32206;51.446;6.792;2023-04-24T19:44:47;6.32;;;2.03;;
46491;SDS011;32206;51.446;6.792;2023-04-24T19:50:36;9.95;;;1.98;;
46491;SDS011;32206;51.446;6.792;2023-04-24T19:53:01;8.48;;;2.17;;
46491;SDS011;32206;51.446;6.792;2023-04-24T19:55:27;6.18;;;2.35;;
46491;SDS011;32206;51.446;6.792;2023-04-24T19:57:53;6.15;;;2.15;;
46491;SDS011;32206;51.446;6.792;2023-04-24T20:03:41;4.88;;;2.17;;
46491;SDS011;32206;51.446;6.792;2023-04-24T20:06:06;8.32;;;2.20;;
46491;SDS011;32206;51.446;6.792;2023-04-24T20:08:32;4.78;;;2.30;;
46491;SDS011;32206;51.446;6.792;2023-04-24T20:10:58;11.70;;;2.10;;
46491;SDS011;32206;51.446;6.792;2023-04-24T20:13:25;4.53;;;2.40;;